createdAt,value
2022-08-05T00:02:19.294Z,17.94
2022-08-05T00:04:55.884Z,17.88
2022-08-05T00:07:59.034Z,17.83
2022-08-05T00:10:12.785Z,17.80
2022-08-05T00:12:55.993Z,17.78
2022-08-05T00:15:55.578Z,17.74
2022-08-05T00:18:21.502Z,17.69
2022-08-05T00:20:50.898Z,17.66
2022-08-05T00:23:44.685Z,17.63
2022-08-05T00:26:08.465Z,17.61
2022-08-05T00:28:37.122Z,17.59
2022-08-05T00:31:07.623Z,17.59
2022-08-05T00:34:53.413Z,17.58
2022-08-05T00:37:11.307Z,17.57
2022-08-05T00:39:14.030Z,17.55
2022-08-05T00:41:55.077Z,17.53
2022-08-05T00:44:30.398Z,17.49
2022-08-05T00:47:02.110Z,17.47
2022-08-05T00:49:51.259Z,17.44
2022-08-05T00:52:28.239Z,17.40
2022-08-05T00:54:56.473Z,17.34
2022-08-05T00:57:25.406Z,17.30
2022-08-05T00:59:59.967Z,17.27
2022-08-05T01:02:27.865Z,17.25
2022-08-05T01:04:55.772Z,17.23
2022-08-05T01:07:23.946Z,17.21
2022-08-05T01:09:59.900Z,17.19
2022-08-05T01:12:29.678Z,17.19
2022-08-05T01:15:04.084Z,17.19
2022-08-05T01:17:53.712Z,17.17
2022-08-05T01:20:44.776Z,17.13
2022-08-05T01:23:45.511Z,17.09
2022-08-05T01:26:45.623Z,17.04
2022-08-05T01:29:23.146Z,17.01
2022-08-05T01:31:58.607Z,17.00
2022-08-05T01:34:31.192Z,16.98
2022-08-05T01:37:32.712Z,16.98
2022-08-05T01:41:20.972Z,16.96
2022-08-05T01:45:12.359Z,16.93
2022-08-05T01:48:54.365Z,16.91
2022-08-05T01:52:38.407Z,16.88
2022-08-05T01:55:42.352Z,16.84
2022-08-05T01:58:59.383Z,16.81
2022-08-05T02:02:00.427Z,16.76
2022-08-05T02:05:47.760Z,16.72
2022-08-05T02:09:16.477Z,16.67
2022-08-05T02:12:58.461Z,16.60
2022-08-05T02:15:59.342Z,16.54
2022-08-05T02:19:13.658Z,16.48
2022-08-05T02:22:38.372Z,16.40
2022-08-05T02:26:12.444Z,16.33
2022-08-05T02:29:58.830Z,16.25
2022-08-05T02:33:12.813Z,16.15
2022-08-05T02:36:52.645Z,16.08
2022-08-05T02:40:22.581Z,15.99
2022-08-05T02:44:06.172Z,15.93
2022-08-05T02:48:11.499Z,15.87
2022-08-05T02:52:03.177Z,15.85
2022-08-05T02:55:54.139Z,15.86
2022-08-05T02:59:27.099Z,15.87
2022-08-05T03:03:16.402Z,15.88
2022-08-05T03:06:59.624Z,15.93
2022-08-05T03:10:11.292Z,15.98
2022-08-05T03:14:03.289Z,16.04
2022-08-05T03:17:54.254Z,16.07
2022-08-05T03:21:33.162Z,16.11
2022-08-05T03:25:32.402Z,16.12
2022-08-05T03:28:36.354Z,16.12
2022-08-05T03:31:56.946Z,16.11
2022-08-05T03:34:53.698Z,16.10
2022-08-05T03:38:04.745Z,16.09
2022-08-05T03:41:33.110Z,16.10
2022-08-05T03:44:29.080Z,16.08
2022-08-05T03:47:18.540Z,16.07
2022-08-05T03:50:38.793Z,16.04
2022-08-05T03:55:50.630Z,16.03
2022-08-05T03:57:41.775Z,16.01
2022-08-05T04:00:51.410Z,16.01
2022-08-05T04:04:21.325Z,16.02
2022-08-05T04:08:29.661Z,16.06
2022-08-05T04:11:52.776Z,16.12
2022-08-05T04:15:24.342Z,16.16
2022-08-05T04:19:12.397Z,16.21
2022-08-05T04:22:41.919Z,16.26
2022-08-05T04:26:00.561Z,16.30
2022-08-05T04:29:49.089Z,16.35
2022-08-05T04:33:04.247Z,16.39
2022-08-05T04:36:45.872Z,16.45
2022-08-05T04:40:30.051Z,16.50
2022-08-05T04:43:22.012Z,16.56
2022-08-05T04:47:13.650Z,16.62
2022-08-05T04:51:01.692Z,16.69
2022-08-05T04:54:26.453Z,16.77
2022-08-05T04:57:36.995Z,16.84
2022-08-05T05:00:53.711Z,16.91
2022-08-05T05:04:21.603Z,16.96
2022-08-05T05:08:06.336Z,17.03
2022-08-05T05:11:53.281Z,17.14
2022-08-05T05:15:59.428Z,17.24
2022-08-05T05:19:23.562Z,17.37
2022-08-05T05:25:49.612Z,17.58
2022-08-05T05:29:40.969Z,17.68
2022-08-05T05:34:01.716Z,17.82
2022-08-05T05:37:59.117Z,17.98
2022-08-05T05:41:18.693Z,18.10
2022-08-05T05:45:07.264Z,18.24
2022-08-05T05:48:48.389Z,18.38
2022-08-05T05:52:40.594Z,18.51
2022-08-05T05:56:26.066Z,18.67
2022-08-05T05:59:23.734Z,18.80
2022-08-05T06:02:00.678Z,18.90
2022-08-05T06:04:35.551Z,19.01
2022-08-05T06:07:07.919Z,19.13
2022-08-05T06:10:01.638Z,19.24
2022-08-05T06:12:29.308Z,19.36
2022-08-05T06:15:23.592Z,19.46
2022-08-05T06:17:54.920Z,19.58
2022-08-05T06:21:07.849Z,19.68
2022-08-05T06:23:44.034Z,19.82
2022-08-05T06:26:21.420Z,19.97
2022-08-05T06:28:52.701Z,20.13
2022-08-05T06:31:30.488Z,20.28
2022-08-05T06:34:09.261Z,20.45
2022-08-05T06:36:58.052Z,20.59
2022-08-05T06:39:30.047Z,20.76
2022-08-05T06:42:04.171Z,20.90
2022-08-05T06:44:41.097Z,21.05
2022-08-05T06:48:52.945Z,21.17
2022-08-05T06:52:03.470Z,21.35
2022-08-05T06:55:08.670Z,21.41
2022-08-05T07:01:27.765Z,21.70
2022-08-05T07:04:26.429Z,21.82
2022-08-05T07:06:54.562Z,21.93
2022-08-05T07:09:24.847Z,22.03
2022-08-05T07:11:55.737Z,22.15
2022-08-05T07:14:46.844Z,22.19
2022-08-05T07:17:59.114Z,22.26
2022-08-05T07:20:37.182Z,22.36
2022-08-05T07:22:57.653Z,22.48
2022-08-05T07:25:56.501Z,22.58
2022-08-05T07:28:17.241Z,22.61
2022-08-05T07:30:50.349Z,22.57
2022-08-05T07:33:36.577Z,22.61
2022-08-05T07:36:20.200Z,22.72
2022-08-05T07:39:01.803Z,22.86
2022-08-05T07:42:08.645Z,22.95
2022-08-05T07:44:43.274Z,23.02
2022-08-05T07:47:15.229Z,23.10
2022-08-05T07:49:54.683Z,23.22
2022-08-05T07:52:32.528Z,23.33
2022-08-05T07:55:02.785Z,23.43
2022-08-05T07:57:57.354Z,23.53
2022-08-05T08:00:27.119Z,23.65
2022-08-05T08:03:15.124Z,23.77
2022-08-05T08:05:49.454Z,23.96
2022-08-05T08:08:19.844Z,24.15
2022-08-05T08:10:49.188Z,24.28
2022-08-05T08:13:22.095Z,24.36
2022-08-05T08:16:35.755Z,24.50
2022-08-05T08:18:49.947Z,24.57
2022-08-05T08:21:19.048Z,24.61
2022-08-05T08:24:01.768Z,24.73
2022-08-05T08:26:32.996Z,24.89
2022-08-05T08:29:21.540Z,25.08
2022-08-05T08:31:52.796Z,25.24
2022-08-05T08:34:30.389Z,25.39
2022-08-05T08:37:03.262Z,25.53
2022-08-05T08:39:44.222Z,25.66
2022-08-05T08:42:33.980Z,25.80
2022-08-05T08:45:17.857Z,25.95
2022-08-05T08:48:11.703Z,26.09
2022-08-05T08:51:03.389Z,26.24
2022-08-05T08:53:40.183Z,26.40
2022-08-05T08:56:22.217Z,26.58
2022-08-05T08:58:50.793Z,26.78
2022-08-05T09:01:23.541Z,26.94
2022-08-05T09:03:58.362Z,27.13
2022-08-05T09:06:30.949Z,27.32
2022-08-05T09:09:02.851Z,27.46
2022-08-05T09:11:52.400Z,27.59
2022-08-05T09:14:57.193Z,27.76
2022-08-05T09:17:40.423Z,27.76
2022-08-05T09:20:04.853Z,27.53
2022-08-05T09:23:07.711Z,27.60
2022-08-05T09:26:01.098Z,27.86
2022-08-05T09:29:08.800Z,28.17
2022-08-05T09:32:42.298Z,28.44
2022-08-05T09:34:26.004Z,28.62
2022-08-05T09:36:59.330Z,28.78
2022-08-05T09:39:41.538Z,28.89
2022-08-05T09:42:24.335Z,29.02
2022-08-05T09:45:17.392Z,28.99
2022-08-05T09:47:56.449Z,29.05
2022-08-05T09:50:48.915Z,29.04
2022-08-05T09:53:25.794Z,29.31
2022-08-05T09:56:04.830Z,29.57
2022-08-05T09:58:41.945Z,29.75
2022-08-05T10:01:15.546Z,29.89
2022-08-05T10:04:13.713Z,30.07
2022-08-05T10:07:01.551Z,30.24
2022-08-05T10:10:14.079Z,30.18
2022-08-05T10:12:58.854Z,29.99
2022-08-05T10:15:34.628Z,30.19
2022-08-05T10:18:25.132Z,30.49
2022-08-05T10:21:06.378Z,30.75
2022-08-05T10:23:59.253Z,30.94
2022-08-05T10:26:32.541Z,31.13
2022-08-05T10:29:10.776Z,31.32
2022-08-05T10:32:52.807Z,30.99
2022-08-05T10:34:31.077Z,30.77
2022-08-05T10:37:03.611Z,30.87
2022-08-05T10:40:04.233Z,30.95
2022-08-05T10:42:33.659Z,31.00
2022-08-05T10:45:20.993Z,31.23
2022-08-05T10:48:30.629Z,31.58
2022-08-05T10:50:58.830Z,31.98
2022-08-05T10:53:55.008Z,32.36
2022-08-05T10:56:28.936Z,32.65
2022-08-05T10:59:12.807Z,32.68
2022-08-05T11:02:14.788Z,33.01
2022-08-05T11:05:11.057Z,33.41
2022-08-05T11:08:01.830Z,33.72
2022-08-05T11:10:50.190Z,34.02
2022-08-05T11:13:57.563Z,34.33
2022-08-05T11:16:47.540Z,34.66
2022-08-05T11:20:16.516Z,34.83
2022-08-05T11:22:49.844Z,35.14
2022-08-05T11:26:04.963Z,35.25
2022-08-05T11:28:44.169Z,35.37
2022-08-05T11:31:58.243Z,35.54
2022-08-05T11:34:14.894Z,35.11
2022-08-05T11:36:52.767Z,34.87
2022-08-05T11:39:55.322Z,35.00
2022-08-05T11:42:28.523Z,34.53
2022-08-05T11:45:05.388Z,34.66
2022-08-05T11:47:49.986Z,35.29
2022-08-05T11:50:25.357Z,35.81
2022-08-05T11:52:57.596Z,36.24
2022-08-05T11:55:31.827Z,36.66
2022-08-05T11:58:09.906Z,37.05
2022-08-05T12:00:44.101Z,37.16
2022-08-05T12:03:28.493Z,37.34
2022-08-05T12:06:02.072Z,37.72
2022-08-05T12:08:52.018Z,37.98
2022-08-05T13:20:01.909Z,38.69
2022-08-05T13:28:24.362Z,38.66
2022-08-05T13:32:21.493Z,38.64
2022-08-05T13:38:57.548Z,39.03
2022-08-05T13:41:58.378Z,39.59
2022-08-05T13:45:43.316Z,40.65
2022-08-05T13:51:36.483Z,40.42
2022-08-05T13:54:25.108Z,39.86
2022-08-05T13:57:17.084Z,39.27
2022-08-05T14:00:41.639Z,39.48
2022-08-05T14:06:29.611Z,39.17
2022-08-05T14:09:04.221Z,39.81
2022-08-05T14:12:04.331Z,40.84
2022-08-05T14:14:40.307Z,41.88
2022-08-05T14:17:36.963Z,42.56
2022-08-05T14:20:27.212Z,43.08
2022-08-05T14:23:24.552Z,43.58
2022-08-05T14:26:10.637Z,44.09
2022-08-05T14:29:15.954Z,44.33
2022-08-05T14:32:02.296Z,44.54
2022-08-05T14:34:35.433Z,44.32
2022-08-05T14:37:08.720Z,43.49
2022-08-05T14:39:49.620Z,42.17
2022-08-05T14:42:26.056Z,41.87
2022-08-05T14:45:00.636Z,41.98
2022-08-05T14:48:04.903Z,41.76
2022-08-05T14:50:44.606Z,40.55
2022-08-05T14:53:44.199Z,39.92
2022-08-05T14:56:13.335Z,39.99
2022-08-05T14:58:47.752Z,39.92
2022-08-05T15:01:48.239Z,40.19
2022-08-05T15:04:15.799Z,41.22
2022-08-05T15:06:49.898Z,41.60
2022-08-05T15:09:51.374Z,41.33
2022-08-05T15:13:28.499Z,41.87
2022-08-05T15:16:13.158Z,41.91
2022-08-05T15:18:41.293Z,42.57
2022-08-05T15:21:09.113Z,43.34
2022-08-05T15:23:38.474Z,43.95
2022-08-05T15:26:06.185Z,43.13
2022-08-05T15:28:34.287Z,42.56
2022-08-05T15:31:05.699Z,42.67
2022-08-05T15:34:04.738Z,43.23
2022-08-05T15:36:25.636Z,42.60
2022-08-05T15:40:39.786Z,42.35
2022-08-05T15:41:56.425Z,41.83
2022-08-05T15:44:28.102Z,41.90
2022-08-05T15:47:05.483Z,42.40
2022-08-05T15:49:58.495Z,42.07
2022-08-05T15:52:29.383Z,41.13
2022-08-05T15:55:18.990Z,40.38
2022-08-05T15:57:51.311Z,40.31
2022-08-05T16:00:30.495Z,40.53
2022-08-05T16:03:15.745Z,40.79
2022-08-05T16:05:47.434Z,40.89
2022-08-05T16:08:23.048Z,40.99
2022-08-05T16:11:02.517Z,40.92
2022-08-05T16:13:35.068Z,40.56
2022-08-05T16:16:07.775Z,40.10
2022-08-05T16:18:51.848Z,40.43
2022-08-05T16:21:59.950Z,40.66
2022-08-05T16:24:40.171Z,40.26
2022-08-05T16:27:04.147Z,40.12
2022-08-05T16:29:50.890Z,39.75
2022-08-05T16:32:29.551Z,39.77
2022-08-05T16:35:01.545Z,40.03
2022-08-05T16:38:16.886Z,40.10
2022-08-05T16:40:51.780Z,39.86
2022-08-05T16:43:25.161Z,39.76
2022-08-05T16:46:05.192Z,39.41
2022-08-05T16:48:37.477Z,39.09
2022-08-05T16:51:09.023Z,39.01
2022-08-05T16:54:03.913Z,38.50
2022-08-05T16:56:28.700Z,38.03
2022-08-05T16:58:57.314Z,37.85
2022-08-05T17:01:24.629Z,37.57
2022-08-05T17:04:09.968Z,37.15
2022-08-05T17:06:37.266Z,36.72
2022-08-05T17:09:19.266Z,36.45
2022-08-05T17:11:48.667Z,36.30
2022-08-05T17:14:34.322Z,36.03
2022-08-05T17:17:14.858Z,35.72
2022-08-05T17:19:47.085Z,35.65
2022-08-05T17:22:44.813Z,35.51
2022-08-05T17:26:02.303Z,35.17
2022-08-05T17:29:33.287Z,34.57
2022-08-05T17:32:32.184Z,34.23
2022-08-05T17:35:23.118Z,33.68
2022-08-05T17:37:51.457Z,33.33
2022-08-05T17:40:35.429Z,32.85
2022-08-05T17:43:47.048Z,32.23
2022-08-05T17:46:36.330Z,31.59
2022-08-05T17:49:59.875Z,31.14
2022-08-05T17:53:11.401Z,30.86
2022-08-05T17:56:19.424Z,30.65
2022-08-05T17:59:40.047Z,30.47
2022-08-05T18:02:53.922Z,30.16
2022-08-05T18:06:12.160Z,29.98
2022-08-05T18:09:25.323Z,29.77
2022-08-05T18:12:53.612Z,29.48
2022-08-05T18:16:01.325Z,29.18
2022-08-05T18:19:12.305Z,28.91
2022-08-05T18:22:24.468Z,28.63
2022-08-05T18:25:57.439Z,28.35
2022-08-05T18:29:10.415Z,28.04
2022-08-05T18:32:28.238Z,27.75
2022-08-05T18:36:00.818Z,27.47
2022-08-05T18:39:42.094Z,27.15
2022-08-05T18:42:39.411Z,26.86
2022-08-05T18:45:58.348Z,26.63
2022-08-05T18:49:08.410Z,26.47
2022-08-05T18:52:32.602Z,26.29
2022-08-05T18:55:41.390Z,26.10
2022-08-05T18:58:50.977Z,25.92
2022-08-05T19:02:03.369Z,25.76
2022-08-05T19:06:12.764Z,25.63
2022-08-05T19:08:35.309Z,25.50
2022-08-05T19:12:00.231Z,25.40
2022-08-05T19:15:10.662Z,25.28
2022-08-05T19:18:38.336Z,25.16
2022-08-05T19:21:51.679Z,25.03
2022-08-05T19:25:00.324Z,24.93
2022-08-05T19:28:16.341Z,24.85
2022-08-05T19:31:26.324Z,24.77
2022-08-05T19:34:38.463Z,24.74
2022-08-05T19:38:04.264Z,24.71
2022-08-05T19:40:30.950Z,24.65
2022-08-05T19:43:04.965Z,24.56
2022-08-05T19:45:33.279Z,24.46
2022-08-05T19:48:05.340Z,24.36
2022-08-05T19:50:32.765Z,24.25
2022-08-05T19:53:09.659Z,24.16
2022-08-05T19:56:15.367Z,24.07
2022-08-05T19:58:29.390Z,23.98
2022-08-05T20:00:57.763Z,23.88
2022-08-05T20:03:24.337Z,23.78
2022-08-05T20:05:55.764Z,23.67
2022-08-05T20:08:24.450Z,23.55
2022-08-05T20:10:52.251Z,23.42
2022-08-05T20:13:30.054Z,23.30
2022-08-05T20:15:57.817Z,23.15
2022-08-05T20:18:33.941Z,23.04
2022-08-05T20:21:05.044Z,22.97
2022-08-05T20:23:58.321Z,22.91
2022-08-05T20:27:11.009Z,22.83
2022-08-05T20:47:20.124Z,22.59
2022-08-05T20:51:15.613Z,22.57
2022-08-05T20:55:54.899Z,22.55
2022-08-05T21:16:16.601Z,22.34
2022-08-05T21:27:08.595Z,22.17
2022-08-05T21:33:56.110Z,21.82
2022-08-05T21:45:51.541Z,21.33
2022-08-05T22:07:59.002Z,20.54
2022-08-05T22:11:35.413Z,20.46
2022-08-05T22:55:21.094Z,20.72
2022-08-05T22:59:45.372Z,20.64
2022-08-05T23:37:50.137Z,20.38
2022-08-05T23:41:04.145Z,20.09
2022-08-05T23:44:41.169Z,19.92
2022-08-05T23:48:59.912Z,19.77
2022-08-05T23:53:48.715Z,19.60
